الصفحة الرئيسية
METAR-TAF:

METAR-TAF

مطار :

Kaltag, ألاسكا, الولايات المتحدة

دائرة عرض: 64-19N, خط طول: 158-44W, ارتفاع: 54 متر

مراقبة الطقس الحالي

تاريخ ووقت الإصدار 30 دقيقة قبل الساعة 00:53UTC
ريح 4 عقدة من الغرب/الجنوب الغربي
درجة الحرارة 12°درجة مئوية
الرطوبة 76%
ضغط 1011 hPa
الرؤية: 16.1 كم
غيوم مفككة على ارتفاع 4800 قدم
ملبد بالغيوم على ارتفاع 6500 قدم

METAR: PAKV 180053Z AUTO 24004KT 10SM BKN048 OVC065 12/08 A2985 RMK AO2 RAE02 SLP111 P0000 T01220083 TSNO $

زمن: 17:23 (01:23 UTC)


TAF: مفقودة

أرصاد الطقس والتوقعات من أكثر من 4000 مطار (تقارير الطقس للمطار METAR والتنبؤ بالطقس بالمطارTAF).

المحطات المتاحة هي النقط الصفراء والحمراء على الخريطة.

حرك المؤشر فوق النقطة لمعرفة اسم المحطة.

ثم انقر لمعرفة أرصاد وتوقعات الطقس.

لتغيير الخارطة: اضغط على الأزرار الخضراء مع رمز الصليب الأسود للتكبير. على الزر الأخضر مع شرطة للتصغير، أو على الأسهم الخضراء للخرائط المجاورة.


METAR-TAF: